sensor_id;sensor_type;location;lat;lon;timestamp;P1;durP1;ratioP1;P2;durP2;ratioP2
67747;SDS011;54543;50.712;6.070;2022-12-18T00:01:57;1.50;;;0.70;;
67747;SDS011;54543;50.712;6.070;2022-12-18T00:04:24;4.45;;;1.25;;
67747;SDS011;54543;50.712;6.070;2022-12-18T00:06:51;5.25;;;1.30;;
67747;SDS011;54543;50.712;6.070;2022-12-18T00:09:17;1.20;;;1.00;;
67747;SDS011;54543;50.712;6.070;2022-12-18T00:11:43;1.38;;;1.00;;
67747;SDS011;54543;50.712;6.070;2022-12-18T00:14:09;0.80;;;0.70;;
67747;SDS011;54543;50.712;6.070;2022-12-18T00:16:36;2.70;;;1.27;;
67747;SDS011;54543;50.712;6.070;2022-12-18T00:19:02;1.88;;;1.25;;
67747;SDS011;54543;50.712;6.070;2022-12-18T00:21:29;0.80;;;0.80;;
67747;SDS011;54543;50.712;6.070;2022-12-18T00:23:56;1.35;;;0.70;;
67747;SDS011;54543;50.712;6.070;2022-12-18T00:26:23;1.02;;;0.77;;
67747;SDS011;54543;50.712;6.070;2022-12-18T00:28:54;1.58;;;0.77;;
67747;SDS011;54543;50.712;6.070;2022-12-18T00:31:22;1.10;;;0.82;;
67747;SDS011;54543;50.712;6.070;2022-12-18T00:33:49;2.13;;;0.85;;
67747;SDS011;54543;50.712;6.070;2022-12-18T00:36:20;0.88;;;0.88;;
67747;SDS011;54543;50.712;6.070;2022-12-18T00:38:47;1.45;;;0.75;;
67747;SDS011;54543;50.712;6.070;2022-12-18T00:41:13;1.20;;;0.73;;
67747;SDS011;54543;50.712;6.070;2022-12-18T00:44:04;1.65;;;0.73;;
67747;SDS011;54543;50.712;6.070;2022-12-18T00:46:30;2.10;;;1.10;;
67747;SDS011;54543;50.712;6.070;2022-12-18T00:48:57;1.63;;;0.88;;
67747;SDS011;54543;50.712;6.070;2022-12-18T00:51:23;2.22;;;1.30;;
67747;SDS011;54543;50.712;6.070;2022-12-18T00:53:49;3.13;;;1.80;;
67747;SDS011;54543;50.712;6.070;2022-12-18T00:56:14;2.13;;;1.30;;
67747;SDS011;54543;50.712;6.070;2022-12-18T00:58:40;1.20;;;0.90;;
67747;SDS011;54543;50.712;6.070;2022-12-18T01:01:05;1.33;;;0.98;;
67747;SDS011;54543;50.712;6.070;2022-12-18T01:03:32;1.67;;;1.20;;
67747;SDS011;54543;50.712;6.070;2022-12-18T01:05:58;1.83;;;1.10;;
67747;SDS011;54543;50.712;6.070;2022-12-18T01:08:23;1.52;;;1.10;;
67747;SDS011;54543;50.712;6.070;2022-12-18T01:10:49;2.75;;;1.55;;
67747;SDS011;54543;50.712;6.070;2022-12-18T01:13:14;1.25;;;0.80;;
67747;SDS011;54543;50.712;6.070;2022-12-18T01:15:47;2.55;;;0.90;;
67747;SDS011;54543;50.712;6.070;2022-12-18T01:18:13;1.00;;;0.90;;
67747;SDS011;54543;50.712;6.070;2022-12-18T01:20:39;1.77;;;0.80;;
67747;SDS011;54543;50.712;6.070;2022-12-18T01:23:04;1.23;;;0.75;;
67747;SDS011;54543;50.712;6.070;2022-12-18T01:25:30;0.80;;;0.75;;
67747;SDS011;54543;50.712;6.070;2022-12-18T01:27:55;1.38;;;0.70;;
67747;SDS011;54543;50.712;6.070;2022-12-18T01:30:20;1.70;;;0.93;;
67747;SDS011;54543;50.712;6.070;2022-12-18T01:32:46;1.20;;;0.63;;
67747;SDS011;54543;50.712;6.070;2022-12-18T01:35:12;1.35;;;0.75;;
67747;SDS011;54543;50.712;6.070;2022-12-18T01:37:37;3.03;;;0.55;;
67747;SDS011;54543;50.712;6.070;2022-12-18T01:40:03;0.65;;;0.52;;
67747;SDS011;54543;50.712;6.070;2022-12-18T01:42:29;0.60;;;0.50;;
67747;SDS011;54543;50.712;6.070;2022-12-18T01:55:22;0.38;;;0.38;;
67747;SDS011;54543;50.712;6.070;2022-12-18T01:57:52;0.90;;;0.70;;
67747;SDS011;54543;50.712;6.070;2022-12-18T02:00:20;1.38;;;0.60;;
67747;SDS011;54543;50.712;6.070;2022-12-18T02:02:47;1.27;;;0.88;;
67747;SDS011;54543;50.712;6.070;2022-12-18T02:05:23;0.68;;;0.50;;
67747;SDS011;54543;50.712;6.070;2022-12-18T02:11:17;0.63;;;0.60;;
67747;SDS011;54543;50.712;6.070;2022-12-18T02:14:01;0.90;;;0.60;;
67747;SDS011;54543;50.712;6.070;2022-12-18T02:19:00;0.73;;;0.55;;
67747;SDS011;54543;50.712;6.070;2022-12-18T02:26:59;1.30;;;0.57;;
67747;SDS011;54543;50.712;6.070;2022-12-18T02:29:46;0.60;;;0.60;;
67747;SDS011;54543;50.712;6.070;2022-12-18T02:32:17;1.75;;;0.95;;
67747;SDS011;54543;50.712;6.070;2022-12-18T02:34:47;1.63;;;0.65;;
67747;SDS011;54543;50.712;6.070;2022-12-18T02:37:16;0.55;;;0.45;;
67747;SDS011;54543;50.712;6.070;2022-12-18T02:39:44;0.63;;;0.60;;
67747;SDS011;54543;50.712;6.070;2022-12-18T02:42:13;0.57;;;0.57;;
67747;SDS011;54543;50.712;6.070;2022-12-18T02:44:43;2.05;;;0.80;;
67747;SDS011;54543;50.712;6.070;2022-12-18T02:47:11;0.90;;;0.70;;
67747;SDS011;54543;50.712;6.070;2022-12-18T02:52:39;1.20;;;0.70;;
67747;SDS011;54543;50.712;6.070;2022-12-18T02:55:32;1.20;;;0.70;;
67747;SDS011;54543;50.712;6.070;2022-12-18T02:58:04;0.98;;;0.50;;
67747;SDS011;54543;50.712;6.070;2022-12-18T03:00:45;0.77;;;0.70;;
67747;SDS011;54543;50.712;6.070;2022-12-18T03:06:06;0.77;;;0.70;;
67747;SDS011;54543;50.712;6.070;2022-12-18T03:08:44;0.77;;;0.70;;
67747;SDS011;54543;50.712;6.070;2022-12-18T03:11:13;1.05;;;0.80;;
67747;SDS011;54543;50.712;6.070;2022-12-18T03:13:49;1.35;;;1.00;;
67747;SDS011;54543;50.712;6.070;2022-12-18T03:16:22;1.27;;;0.70;;
67747;SDS011;54543;50.712;6.070;2022-12-18T03:18:52;1.45;;;0.70;;
67747;SDS011;54543;50.712;6.070;2022-12-18T03:22:04;0.68;;;0.68;;
67747;SDS011;54543;50.712;6.070;2022-12-18T03:24:26;0.50;;;0.50;;
67747;SDS011;54543;50.712;6.070;2022-12-18T03:26:55;0.55;;;0.50;;
67747;SDS011;54543;50.712;6.070;2022-12-18T03:29:27;0.50;;;0.50;;
67747;SDS011;54543;50.712;6.070;2022-12-18T03:32:11;0.98;;;0.70;;
67747;SDS011;54543;50.712;6.070;2022-12-18T03:34:41;0.68;;;0.68;;
67747;SDS011;54543;50.712;6.070;2022-12-18T03:37:09;0.75;;;0.60;;
67747;SDS011;54543;50.712;6.070;2022-12-18T03:39:34;0.65;;;0.65;;
67747;SDS011;54543;50.712;6.070;2022-12-18T03:44:40;1.23;;;0.55;;
67747;SDS011;54543;50.712;6.070;2022-12-18T03:47:15;1.30;;;0.88;;
67747;SDS011;54543;50.712;6.070;2022-12-18T03:52:17;0.82;;;0.60;;
67747;SDS011;54543;50.712;6.070;2022-12-18T03:54:51;0.60;;;0.60;;
67747;SDS011;54543;50.712;6.070;2022-12-18T03:57:19;0.70;;;0.70;;
67747;SDS011;54543;50.712;6.070;2022-12-18T03:59:49;1.77;;;1.40;;
67747;SDS011;54543;50.712;6.070;2022-12-18T04:02:17;1.58;;;0.93;;
67747;SDS011;54543;50.712;6.070;2022-12-18T04:04:43;0.60;;;0.60;;
67747;SDS011;54543;50.712;6.070;2022-12-18T04:07:11;1.25;;;0.80;;
67747;SDS011;54543;50.712;6.070;2022-12-18T04:09:39;1.25;;;0.70;;
67747;SDS011;54543;50.712;6.070;2022-12-18T04:12:06;1.02;;;0.70;;
67747;SDS011;54543;50.712;6.070;2022-12-18T04:14:33;0.60;;;0.60;;
67747;SDS011;54543;50.712;6.070;2022-12-18T04:17:01;0.50;;;0.50;;
67747;SDS011;54543;50.712;6.070;2022-12-18T04:19:27;0.60;;;0.60;;
67747;SDS011;54543;50.712;6.070;2022-12-18T04:21:53;0.50;;;0.50;;
67747;SDS011;54543;50.712;6.070;2022-12-18T04:24:19;0.63;;;0.50;;
67747;SDS011;54543;50.712;6.070;2022-12-18T04:26:44;1.35;;;0.77;;
67747;SDS011;54543;50.712;6.070;2022-12-18T04:29:10;1.25;;;1.00;;
67747;SDS011;54543;50.712;6.070;2022-12-18T04:31:35;1.55;;;0.90;;
67747;SDS011;54543;50.712;6.070;2022-12-18T04:34:01;0.68;;;0.68;;
67747;SDS011;54543;50.712;6.070;2022-12-18T04:36:27;1.77;;;0.73;;
67747;SDS011;54543;50.712;6.070;2022-12-18T04:38:52;0.73;;;0.63;;
67747;SDS011;54543;50.712;6.070;2022-12-18T04:41:18;2.38;;;0.80;;
67747;SDS011;54543;50.712;6.070;2022-12-18T04:43:43;1.10;;;0.65;;
67747;SDS011;54543;50.712;6.070;2022-12-18T04:46:09;0.90;;;0.82;;
67747;SDS011;54543;50.712;6.070;2022-12-18T04:48:36;0.82;;;0.70;;
67747;SDS011;54543;50.712;6.070;2022-12-18T04:51:03;2.40;;;1.00;;
67747;SDS011;54543;50.712;6.070;2022-12-18T04:53:29;0.98;;;0.70;;
67747;SDS011;54543;50.712;6.070;2022-12-18T04:56:07;1.30;;;0.80;;
67747;SDS011;54543;50.712;6.070;2022-12-18T04:58:35;1.45;;;0.90;;
67747;SDS011;54543;50.712;6.070;2022-12-18T05:01:01;1.48;;;0.95;;
67747;SDS011;54543;50.712;6.070;2022-12-18T05:03:28;1.13;;;0.80;;
67747;SDS011;54543;50.712;6.070;2022-12-18T05:05:53;1.40;;;0.77;;
67747;SDS011;54543;50.712;6.070;2022-12-18T05:08:22;0.88;;;0.70;;
67747;SDS011;54543;50.712;6.070;2022-12-18T05:10:48;0.60;;;0.55;;
67747;SDS011;54543;50.712;6.070;2022-12-18T05:13:13;0.50;;;0.50;;
67747;SDS011;54543;50.712;6.070;2022-12-18T05:15:39;0.50;;;0.50;;
67747;SDS011;54543;50.712;6.070;2022-12-18T05:18:04;0.98;;;0.85;;
67747;SDS011;54543;50.712;6.070;2022-12-18T05:20:30;0.95;;;0.75;;
67747;SDS011;54543;50.712;6.070;2022-12-18T05:22:56;1.75;;;0.73;;
67747;SDS011;54543;50.712;6.070;2022-12-18T05:25:22;0.80;;;0.75;;
67747;SDS011;54543;50.712;6.070;2022-12-18T05:27:48;0.70;;;0.70;;
67747;SDS011;54543;50.712;6.070;2022-12-18T05:30:14;0.98;;;0.52;;
67747;SDS011;54543;50.712;6.070;2022-12-18T05:32:40;1.02;;;0.80;;
67747;SDS011;54543;50.712;6.070;2022-12-18T05:35:07;1.42;;;0.80;;
67747;SDS011;54543;50.712;6.070;2022-12-18T05:37:33;1.42;;;0.93;;
67747;SDS011;54543;50.712;6.070;2022-12-18T05:39:59;0.93;;;0.70;;
67747;SDS011;54543;50.712;6.070;2022-12-18T05:42:24;0.60;;;0.60;;
67747;SDS011;54543;50.712;6.070;2022-12-18T05:44:50;1.85;;;1.05;;
67747;SDS011;54543;50.712;6.070;2022-12-18T05:47:15;2.17;;;0.90;;
67747;SDS011;54543;50.712;6.070;2022-12-18T05:49:41;1.05;;;0.90;;
67747;SDS011;54543;50.712;6.070;2022-12-18T05:52:06;1.45;;;1.05;;
67747;SDS011;54543;50.712;6.070;2022-12-18T05:54:32;0.73;;;0.70;;
67747;SDS011;54543;50.712;6.070;2022-12-18T05:56:58;0.82;;;0.70;;
67747;SDS011;54543;50.712;6.070;2022-12-18T05:59:23;2.60;;;1.30;;
67747;SDS011;54543;50.712;6.070;2022-12-18T06:01:49;1.08;;;0.73;;
67747;SDS011;54543;50.712;6.070;2022-12-18T06:04:15;1.08;;;0.98;;
67747;SDS011;54543;50.712;6.070;2022-12-18T06:06:40;2.67;;;1.23;;
67747;SDS011;54543;50.712;6.070;2022-12-18T06:09:06;1.45;;;0.90;;
67747;SDS011;54543;50.712;6.070;2022-12-18T06:11:33;2.25;;;1.17;;
67747;SDS011;54543;50.712;6.070;2022-12-18T06:14:00;0.77;;;0.75;;
67747;SDS011;54543;50.712;6.070;2022-12-18T06:16:27;1.70;;;1.38;;
67747;SDS011;54543;50.712;6.070;2022-12-18T06:18:53;2.78;;;1.40;;
67747;SDS011;54543;50.712;6.070;2022-12-18T06:21:21;2.30;;;1.15;;
67747;SDS011;54543;50.712;6.070;2022-12-18T06:23:46;1.98;;;1.35;;
67747;SDS011;54543;50.712;6.070;2022-12-18T06:26:12;3.20;;;1.10;;
67747;SDS011;54543;50.712;6.070;2022-12-18T06:28:38;1.42;;;1.30;;
67747;SDS011;54543;50.712;6.070;2022-12-18T06:31:05;1.20;;;1.10;;
67747;SDS011;54543;50.712;6.070;2022-12-18T06:33:31;1.80;;;0.98;;
67747;SDS011;54543;50.712;6.070;2022-12-18T06:36:01;1.63;;;0.90;;
67747;SDS011;54543;50.712;6.070;2022-12-18T06:38:27;2.75;;;0.95;;
67747;SDS011;54543;50.712;6.070;2022-12-18T06:40:53;1.27;;;0.82;;
67747;SDS011;54543;50.712;6.070;2022-12-18T06:43:18;1.13;;;0.80;;
67747;SDS011;54543;50.712;6.070;2022-12-18T06:45:44;1.48;;;1.00;;
67747;SDS011;54543;50.712;6.070;2022-12-18T06:48:09;2.72;;;1.42;;
67747;SDS011;54543;50.712;6.070;2022-12-18T06:50:35;1.42;;;0.60;;
67747;SDS011;54543;50.712;6.070;2022-12-18T06:53:00;0.55;;;0.52;;
67747;SDS011;54543;50.712;6.070;2022-12-18T06:55:26;1.35;;;0.95;;
67747;SDS011;54543;50.712;6.070;2022-12-18T06:57:52;0.70;;;0.60;;
67747;SDS011;54543;50.712;6.070;2022-12-18T07:00:17;0.75;;;0.70;;
67747;SDS011;54543;50.712;6.070;2022-12-18T07:02:43;1.20;;;0.82;;
67747;SDS011;54543;50.712;6.070;2022-12-18T07:05:09;2.33;;;0.98;;
67747;SDS011;54543;50.712;6.070;2022-12-18T07:07:34;1.23;;;0.75;;
67747;SDS011;54543;50.712;6.070;2022-12-18T07:10:00;2.40;;;1.40;;
67747;SDS011;54543;50.712;6.070;2022-12-18T07:12:29;1.30;;;0.90;;
67747;SDS011;54543;50.712;6.070;2022-12-18T07:14:54;4.13;;;2.13;;
67747;SDS011;54543;50.712;6.070;2022-12-18T07:17:20;1.38;;;0.98;;
67747;SDS011;54543;50.712;6.070;2022-12-18T07:19:45;2.33;;;1.20;;
67747;SDS011;54543;50.712;6.070;2022-12-18T07:22:11;2.55;;;1.17;;
67747;SDS011;54543;50.712;6.070;2022-12-18T07:24:37;3.50;;;1.60;;
67747;SDS011;54543;50.712;6.070;2022-12-18T07:27:02;1.60;;;0.90;;
67747;SDS011;54543;50.712;6.070;2022-12-18T07:29:28;3.05;;;1.83;;
67747;SDS011;54543;50.712;6.070;2022-12-18T07:31:53;2.72;;;1.08;;
67747;SDS011;54543;50.712;6.070;2022-12-18T07:34:19;3.22;;;1.58;;
67747;SDS011;54543;50.712;6.070;2022-12-18T07:36:44;2.20;;;1.27;;
67747;SDS011;54543;50.712;6.070;2022-12-18T07:39:10;2.22;;;1.25;;
67747;SDS011;54543;50.712;6.070;2022-12-18T07:41:36;1.70;;;1.33;;
67747;SDS011;54543;50.712;6.070;2022-12-18T07:44:01;2.47;;;1.30;;
67747;SDS011;54543;50.712;6.070;2022-12-18T07:46:27;1.88;;;1.30;;
67747;SDS011;54543;50.712;6.070;2022-12-18T07:48:52;3.25;;;2.08;;
67747;SDS011;54543;50.712;6.070;2022-12-18T07:51:18;3.60;;;1.90;;
67747;SDS011;54543;50.712;6.070;2022-12-18T07:53:44;2.60;;;1.67;;
67747;SDS011;54543;50.712;6.070;2022-12-18T07:56:10;3.30;;;2.00;;
67747;SDS011;54543;50.712;6.070;2022-12-18T07:58:36;2.42;;;1.50;;
67747;SDS011;54543;50.712;6.070;2022-12-18T08:01:03;3.33;;;1.55;;
67747;SDS011;54543;50.712;6.070;2022-12-18T08:03:33;2.25;;;1.20;;
67747;SDS011;54543;50.712;6.070;2022-12-18T08:06:00;1.88;;;1.23;;
67747;SDS011;54543;50.712;6.070;2022-12-18T08:08:27;2.65;;;1.00;;
67747;SDS011;54543;50.712;6.070;2022-12-18T08:10:53;1.92;;;1.17;;
67747;SDS011;54543;50.712;6.070;2022-12-18T08:13:19;3.70;;;1.77;;
67747;SDS011;54543;50.712;6.070;2022-12-18T08:15:44;2.35;;;1.48;;
67747;SDS011;54543;50.712;6.070;2022-12-18T08:18:10;2.55;;;1.42;;
67747;SDS011;54543;50.712;6.070;2022-12-18T08:20:35;3.55;;;1.40;;
67747;SDS011;54543;50.712;6.070;2022-12-18T08:23:01;1.70;;;1.17;;
67747;SDS011;54543;50.712;6.070;2022-12-18T08:25:26;1.95;;;1.20;;
67747;SDS011;54543;50.712;6.070;2022-12-18T08:27:52;2.72;;;1.50;;
67747;SDS011;54543;50.712;6.070;2022-12-18T08:30:17;1.98;;;1.20;;
67747;SDS011;54543;50.712;6.070;2022-12-18T08:32:43;1.67;;;0.88;;
67747;SDS011;54543;50.712;6.070;2022-12-18T08:35:09;3.38;;;2.00;;
67747;SDS011;54543;50.712;6.070;2022-12-18T08:37:36;2.63;;;1.60;;
67747;SDS011;54543;50.712;6.070;2022-12-18T08:40:02;2.90;;;1.85;;
67747;SDS011;54543;50.712;6.070;2022-12-18T08:42:28;1.70;;;1.50;;
67747;SDS011;54543;50.712;6.070;2022-12-18T08:45:12;2.25;;;1.40;;
67747;SDS011;54543;50.712;6.070;2022-12-18T08:47:37;2.20;;;1.50;;
67747;SDS011;54543;50.712;6.070;2022-12-18T08:50:03;2.80;;;1.50;;
67747;SDS011;54543;50.712;6.070;2022-12-18T08:52:28;3.20;;;1.50;;
67747;SDS011;54543;50.712;6.070;2022-12-18T08:54:57;4.68;;;2.13;;
67747;SDS011;54543;50.712;6.070;2022-12-18T08:57:22;3.88;;;1.77;;
67747;SDS011;54543;50.712;6.070;2022-12-18T08:59:48;3.63;;;1.63;;
67747;SDS011;54543;50.712;6.070;2022-12-18T09:02:13;3.72;;;1.80;;
67747;SDS011;54543;50.712;6.070;2022-12-18T09:04:39;5.03;;;1.77;;
67747;SDS011;54543;50.712;6.070;2022-12-18T09:07:04;2.70;;;1.45;;
67747;SDS011;54543;50.712;6.070;2022-12-18T09:09:30;4.28;;;1.98;;
67747;SDS011;54543;50.712;6.070;2022-12-18T09:11:56;5.07;;;2.25;;
67747;SDS011;54543;50.712;6.070;2022-12-18T09:14:21;3.03;;;1.70;;
67747;SDS011;54543;50.712;6.070;2022-12-18T09:16:46;7.50;;;2.70;;
67747;SDS011;54543;50.712;6.070;2022-12-18T09:19:12;5.32;;;2.28;;
67747;SDS011;54543;50.712;6.070;2022-12-18T09:21:38;10.00;;;3.80;;
67747;SDS011;54543;50.712;6.070;2022-12-18T09:24:04;7.70;;;4.07;;
67747;SDS011;54543;50.712;6.070;2022-12-18T09:26:30;6.82;;;3.53;;
67747;SDS011;54543;50.712;6.070;2022-12-18T09:28:56;4.70;;;2.45;;
67747;SDS011;54543;50.712;6.070;2022-12-18T09:31:22;6.82;;;3.00;;
67747;SDS011;54543;50.712;6.070;2022-12-18T09:33:48;4.95;;;2.60;;
67747;SDS011;54543;50.712;6.070;2022-12-18T09:36:15;5.30;;;2.40;;
67747;SDS011;54543;50.712;6.070;2022-12-18T09:38:42;4.38;;;2.22;;
67747;SDS011;54543;50.712;6.070;2022-12-18T09:46:45;3.67;;;1.90;;
67747;SDS011;54543;50.712;6.070;2022-12-18T09:49:16;4.10;;;2.50;;
67747;SDS011;54543;50.712;6.070;2022-12-18T09:51:46;5.15;;;2.65;;
67747;SDS011;54543;50.712;6.070;2022-12-18T09:54:20;4.85;;;2.22;;
67747;SDS011;54543;50.712;6.070;2022-12-18T09:56:49;5.82;;;2.70;;
67747;SDS011;54543;50.712;6.070;2022-12-18T09:59:23;4.97;;;2.30;;
67747;SDS011;54543;50.712;6.070;2022-12-18T10:01:51;4.90;;;1.90;;
67747;SDS011;54543;50.712;6.070;2022-12-18T10:04:17;9.90;;;2.70;;
67747;SDS011;54543;50.712;6.070;2022-12-18T10:09:38;3.53;;;2.30;;
67747;SDS011;54543;50.712;6.070;2022-12-18T10:12:17;3.92;;;2.20;;
67747;SDS011;54543;50.712;6.070;2022-12-18T10:20:43;4.03;;;2.00;;
67747;SDS011;54543;50.712;6.070;2022-12-18T10:28:24;4.50;;;2.35;;
67747;SDS011;54543;50.712;6.070;2022-12-18T10:30:51;4.07;;;2.38;;
67747;SDS011;54543;50.712;6.070;2022-12-18T10:33:18;4.85;;;2.45;;
67747;SDS011;54543;50.712;6.070;2022-12-18T10:35:46;6.47;;;3.30;;
67747;SDS011;54543;50.712;6.070;2022-12-18T10:40:48;5.20;;;3.10;;
67747;SDS011;54543;50.712;6.070;2022-12-18T10:43:15;5.65;;;2.90;;
67747;SDS011;54543;50.712;6.070;2022-12-18T10:45:57;3.15;;;2.00;;
67747;SDS011;54543;50.712;6.070;2022-12-18T10:48:28;5.55;;;3.00;;
67747;SDS011;54543;50.712;6.070;2022-12-18T10:50:55;4.88;;;2.65;;
67747;SDS011;54543;50.712;6.070;2022-12-18T10:53:23;3.90;;;2.13;;
67747;SDS011;54543;50.712;6.070;2022-12-18T10:55:50;6.70;;;2.53;;
67747;SDS011;54543;50.712;6.070;2022-12-18T11:01:05;5.70;;;4.05;;
67747;SDS011;54543;50.712;6.070;2022-12-18T11:06:04;4.55;;;2.30;;
67747;SDS011;54543;50.712;6.070;2022-12-18T11:08:31;3.67;;;2.20;;
67747;SDS011;54543;50.712;6.070;2022-12-18T11:10:57;4.32;;;2.90;;
67747;SDS011;54543;50.712;6.070;2022-12-18T11:13:24;5.05;;;2.63;;
67747;SDS011;54543;50.712;6.070;2022-12-18T11:15:51;6.50;;;3.35;;
67747;SDS011;54543;50.712;6.070;2022-12-18T11:18:30;7.50;;;3.75;;
67747;SDS011;54543;50.712;6.070;2022-12-18T11:21:06;5.13;;;2.78;;
67747;SDS011;54543;50.712;6.070;2022-12-18T11:23:33;8.80;;;4.57;;
67747;SDS011;54543;50.712;6.070;2022-12-18T11:26:03;5.20;;;3.03;;
67747;SDS011;54543;50.712;6.070;2022-12-18T11:28:41;5.32;;;3.17;;
67747;SDS011;54543;50.712;6.070;2022-12-18T11:34:02;5.88;;;3.13;;
67747;SDS011;54543;50.712;6.070;2022-12-18T11:36:44;8.48;;;4.50;;
67747;SDS011;54543;50.712;6.070;2022-12-18T11:39:18;6.43;;;3.30;;
67747;SDS011;54543;50.712;6.070;2022-12-18T11:41:57;8.77;;;4.25;;
67747;SDS011;54543;50.712;6.070;2022-12-18T11:49:39;8.10;;;3.95;;
67747;SDS011;54543;50.712;6.070;2022-12-18T11:54:46;9.23;;;4.82;;
67747;SDS011;54543;50.712;6.070;2022-12-18T12:00:00;10.35;;;5.72;;
67747;SDS011;54543;50.712;6.070;2022-12-18T12:08:10;8.27;;;4.20;;
67747;SDS011;54543;50.712;6.070;2022-12-18T12:10:58;10.45;;;5.10;;
67747;SDS011;54543;50.712;6.070;2022-12-18T12:16:50;7.95;;;3.72;;
67747;SDS011;54543;50.712;6.070;2022-12-18T12:25:48;6.50;;;3.47;;
67747;SDS011;54543;50.712;6.070;2022-12-18T12:28:35;8.07;;;3.50;;
67747;SDS011;54543;50.712;6.070;2022-12-18T12:34:01;10.38;;;4.82;;
67747;SDS011;54543;50.712;6.070;2022-12-18T12:39:18;9.07;;;3.95;;
67747;SDS011;54543;50.712;6.070;2022-12-18T12:41:48;10.57;;;4.10;;
67747;SDS011;54543;50.712;6.070;2022-12-18T12:44:54;6.53;;;3.35;;
67747;SDS011;54543;50.712;6.070;2022-12-18T12:49:58;7.35;;;3.45;;
67747;SDS011;54543;50.712;6.070;2022-12-18T12:52:35;8.73;;;4.40;;
67747;SDS011;54543;50.712;6.070;2022-12-18T12:55:05;6.13;;;3.33;;
67747;SDS011;54543;50.712;6.070;2022-12-18T12:57:38;6.93;;;4.15;;
67747;SDS011;54543;50.712;6.070;2022-12-18T13:00:11;7.18;;;3.58;;
67747;SDS011;54543;50.712;6.070;2022-12-18T13:08:03;5.90;;;3.20;;
67747;SDS011;54543;50.712;6.070;2022-12-18T13:13:05;10.15;;;5.13;;
67747;SDS011;54543;50.712;6.070;2022-12-18T13:20:38;8.95;;;4.43;;
67747;SDS011;54543;50.712;6.070;2022-12-18T13:25:50;7.78;;;3.70;;
67747;SDS011;54543;50.712;6.070;2022-12-18T13:34:13;7.53;;;3.42;;
67747;SDS011;54543;50.712;6.070;2022-12-18T13:36:50;5.15;;;2.97;;
67747;SDS011;54543;50.712;6.070;2022-12-18T13:39:21;6.10;;;2.85;;
67747;SDS011;54543;50.712;6.070;2022-12-18T13:41:51;6.32;;;3.35;;
67747;SDS011;54543;50.712;6.070;2022-12-18T13:47:25;6.10;;;3.20;;
67747;SDS011;54543;50.712;6.070;2022-12-18T13:50:22;4.88;;;2.70;;
67747;SDS011;54543;50.712;6.070;2022-12-18T13:52:49;4.10;;;2.20;;
67747;SDS011;54543;50.712;6.070;2022-12-18T13:55:18;5.10;;;2.78;;
67747;SDS011;54543;50.712;6.070;2022-12-18T13:57:45;6.75;;;3.85;;
67747;SDS011;54543;50.712;6.070;2022-12-18T14:02:49;6.05;;;3.30;;
67747;SDS011;54543;50.712;6.070;2022-12-18T14:07:55;7.45;;;3.60;;
67747;SDS011;54543;50.712;6.070;2022-12-18T14:10:32;7.88;;;3.80;;
67747;SDS011;54543;50.712;6.070;2022-12-18T14:12:58;7.38;;;3.83;;
67747;SDS011;54543;50.712;6.070;2022-12-18T14:15:31;10.27;;;4.57;;
67747;SDS011;54543;50.712;6.070;2022-12-18T14:18:01;8.38;;;4.25;;
67747;SDS011;54543;50.712;6.070;2022-12-18T14:20:46;8.20;;;4.60;;
67747;SDS011;54543;50.712;6.070;2022-12-18T14:28:53;8.15;;;4.07;;
67747;SDS011;54543;50.712;6.070;2022-12-18T14:31:21;6.40;;;3.50;;
67747;SDS011;54543;50.712;6.070;2022-12-18T14:33:48;7.22;;;3.70;;
67747;SDS011;54543;50.712;6.070;2022-12-18T14:36:19;6.13;;;3.58;;
67747;SDS011;54543;50.712;6.070;2022-12-18T14:38:50;6.88;;;3.45;;
67747;SDS011;54543;50.712;6.070;2022-12-18T14:41:18;5.85;;;3.03;;
67747;SDS011;54543;50.712;6.070;2022-12-18T14:43:46;7.40;;;3.33;;
67747;SDS011;54543;50.712;6.070;2022-12-18T14:48:57;7.45;;;3.70;;
67747;SDS011;54543;50.712;6.070;2022-12-18T14:51:28;7.32;;;3.75;;
67747;SDS011;54543;50.712;6.070;2022-12-18T14:54:03;6.82;;;3.33;;
67747;SDS011;54543;50.712;6.070;2022-12-18T14:56:37;7.45;;;3.72;;
67747;SDS011;54543;50.712;6.070;2022-12-18T14:59:21;8.15;;;3.50;;
67747;SDS011;54543;50.712;6.070;2022-12-18T15:01:54;7.35;;;3.58;;
67747;SDS011;54543;50.712;6.070;2022-12-18T15:04:42;7.82;;;3.88;;
67747;SDS011;54543;50.712;6.070;2022-12-18T15:07:21;8.05;;;4.28;;
67747;SDS011;54543;50.712;6.070;2022-12-18T15:13:19;5.82;;;3.25;;
67747;SDS011;54543;50.712;6.070;2022-12-18T15:15:45;7.45;;;3.30;;
67747;SDS011;54543;50.712;6.070;2022-12-18T15:18:13;6.35;;;3.22;;
67747;SDS011;54543;50.712;6.070;2022-12-18T15:20:46;6.97;;;3.78;;
67747;SDS011;54543;50.712;6.070;2022-12-18T15:23:20;6.35;;;3.15;;
67747;SDS011;54543;50.712;6.070;2022-12-18T15:26:02;6.00;;;3.17;;
67747;SDS011;54543;50.712;6.070;2022-12-18T15:28:49;9.25;;;3.95;;
67747;SDS011;54543;50.712;6.070;2022-12-18T15:33:42;11.77;;;5.57;;
67747;SDS011;54543;50.712;6.070;2022-12-18T15:36:29;7.55;;;3.95;;
67747;SDS011;54543;50.712;6.070;2022-12-18T15:38:55;7.85;;;4.10;;
67747;SDS011;54543;50.712;6.070;2022-12-18T15:41:22;8.90;;;4.28;;
67747;SDS011;54543;50.712;6.070;2022-12-18T15:43:49;6.72;;;3.40;;
67747;SDS011;54543;50.712;6.070;2022-12-18T15:46:16;6.72;;;3.70;;
67747;SDS011;54543;50.712;6.070;2022-12-18T15:48:46;63.92;;;18.63;;
67747;SDS011;54543;50.712;6.070;2022-12-18T15:53:41;28.45;;;12.77;;
67747;SDS011;54543;50.712;6.070;2022-12-18T15:56:10;55.50;;;27.88;;
67747;SDS011;54543;50.712;6.070;2022-12-18T15:58:56;30.80;;;16.38;;
67747;SDS011;54543;50.712;6.070;2022-12-18T16:01:25;25.67;;;13.10;;
67747;SDS011;54543;50.712;6.070;2022-12-18T16:03:53;17.63;;;9.45;;
67747;SDS011;54543;50.712;6.070;2022-12-18T16:06:20;14.77;;;8.73;;
67747;SDS011;54543;50.712;6.070;2022-12-18T16:08:46;15.60;;;8.07;;
67747;SDS011;54543;50.712;6.070;2022-12-18T16:16:40;9.93;;;5.17;;
67747;SDS011;54543;50.712;6.070;2022-12-18T16:19:06;12.15;;;5.75;;
67747;SDS011;54543;50.712;6.070;2022-12-18T16:21:32;10.77;;;4.85;;
67747;SDS011;54543;50.712;6.070;2022-12-18T16:23:57;9.55;;;4.47;;
67747;SDS011;54543;50.712;6.070;2022-12-18T16:26:23;7.50;;;3.90;;
67747;SDS011;54543;50.712;6.070;2022-12-18T16:28:48;9.60;;;5.20;;
67747;SDS011;54543;50.712;6.070;2022-12-18T16:31:14;6.32;;;3.53;;
67747;SDS011;54543;50.712;6.070;2022-12-18T16:33:39;8.88;;;4.15;;
67747;SDS011;54543;50.712;6.070;2022-12-18T16:36:05;7.63;;;3.63;;
67747;SDS011;54543;50.712;6.070;2022-12-18T16:38:30;9.10;;;4.88;;
67747;SDS011;54543;50.712;6.070;2022-12-18T16:40:56;8.48;;;5.13;;
67747;SDS011;54543;50.712;6.070;2022-12-18T16:43:40;9.10;;;4.50;;
67747;SDS011;54543;50.712;6.070;2022-12-18T16:46:05;8.60;;;3.80;;
67747;SDS011;54543;50.712;6.070;2022-12-18T16:48:31;7.97;;;3.65;;
67747;SDS011;54543;50.712;6.070;2022-12-18T16:51:03;6.90;;;3.30;;
67747;SDS011;54543;50.712;6.070;2022-12-18T16:53:30;6.03;;;3.25;;
67747;SDS011;54543;50.712;6.070;2022-12-18T16:55:57;7.15;;;3.45;;
67747;SDS011;54543;50.712;6.070;2022-12-18T16:58:23;6.47;;;3.20;;
67747;SDS011;54543;50.712;6.070;2022-12-18T17:00:48;7.43;;;4.03;;
67747;SDS011;54543;50.712;6.070;2022-12-18T17:03:14;9.85;;;4.93;;
67747;SDS011;54543;50.712;6.070;2022-12-18T17:05:39;7.78;;;3.35;;
67747;SDS011;54543;50.712;6.070;2022-12-18T17:08:05;6.75;;;3.20;;
67747;SDS011;54543;50.712;6.070;2022-12-18T17:10:30;7.80;;;4.03;;
67747;SDS011;54543;50.712;6.070;2022-12-18T17:12:56;7.88;;;3.55;;
67747;SDS011;54543;50.712;6.070;2022-12-18T17:15:22;6.15;;;3.55;;
67747;SDS011;54543;50.712;6.070;2022-12-18T17:17:47;7.43;;;3.78;;
67747;SDS011;54543;50.712;6.070;2022-12-18T17:20:13;6.47;;;3.50;;
67747;SDS011;54543;50.712;6.070;2022-12-18T17:22:38;5.70;;;3.13;;
67747;SDS011;54543;50.712;6.070;2022-12-18T17:25:04;6.90;;;3.72;;
67747;SDS011;54543;50.712;6.070;2022-12-18T17:27:30;7.43;;;4.00;;